Edmonton International Airport
CYEG : now visible

Airfield :











YOU CAN JOIN US ON...

 
LOGIN :

Register | Disclaimer

   EN    FR    IT 

 









Legend :    VFR   Marginal VFR   IFR   Intensive IFR   Very Intensive IFR
Visi :
Ceiling :
>= 8 km
>= 3000ft
5 to 8 km
1000 to 3000 ft
1500m to 5 km
500 to 1000 ft
800 to 1500m
200 to 500 ft
< 800m
< 200 ft
Symbols :   Thunderstorms  Fog  Heavy snow  Heavy precipitations  Wind > 20 kt






- Airport Elevation : 2373 ft
- IATA code : YEG


CYEG - Edmonton International

CURRENT METAR :
  • 221000Z 36016G21KT 15SM -SHSN OVC013 M02/M04 A2997 RMK ST8 CVCTV CLD EMBD SLP168

EXPIRED METARs :
  • 220922Z 35020G29KT 5SM R02/3000V5000FT/U -SHSN OVC012 M01/M02 A2995 RMK ST8 SLP159
  • 220911Z 36021KT 2 1/2SM -SHSN OVC010 M01/M02 A2994 RMK SN4ST4 PRESRR SLP157
  • 220830Z 35019G25KT 20SM -SHSN OVC017 01/M03 A2991 RMK SC8 SLP146
  • 220802Z 35017G23KT 20SM -SHRA BKN016 OVC060 01/M01 A2989 RMK SC6SC2 CVCTV CLD EMBD SLP138
  • 220735Z 35020G26KT 20SM SCT017 BKN060 BKN250 02/M02 A2988 RMK SC4SC2CS1 SLP133

TAF TAF CYEG
Valid from the 22 at 09:00 until the 23 at 06:00 UTC


220838Z 2209/2306 35015G25KT P6SM SCT015 OVC030
TEMPO 2209/2213 2SM -SN OVC015
FM221300 34015G25KT P6SM SCT020 BKN040
TEMPO 2213/2215 5SM -SN BKN020
FM221600 35015G25KT P6SM SCT040
BECMG 2219/2221 33015KT
FM222300 35008KT P6SM FEW060 RMK NXT FCST BY 221200Z
CZEG FIR / North America



MET'MAP, your aeronautical weather chart ! - Copyright ORBIFLY December 2007 - Disclaimer

ORBIFLY MET'MAP TEAM :

Programming & Development : Alexandra Zaïnal
Concept & original design : Baudouin d'Aumeries
Assistance for programming : Marc-Olivier Méhu
Technical & hardware support : Manuel Goepfert

Contact : metmap@orbifly.com




SOURCES & CREDITS :

   NOAA       Earth
Advisory